RYR1818 LPFR-LPPR
Flight info
| Callsign | RYR1818 |
|---|---|
| Flight time | 0h 52m |
| Altitude | 30000 |
| Route | EVURA DCT DIGAL DCT PESUL |
| Aircraft | B738/M-SDE2E3FGHIRWXY/LB1 |
Departure
| Time | 2026-05-05 17:37 |
|---|---|
| Airport | Faro - Gago Coutinho International Airport (LPFR) |
Arrival
| Time | 2026-05-05 18:29 |
|---|---|
| Airport | Francisco de Sá Carneiro Airport (LPPR) |
| Time | Latitude | Longitude | Altitude | Speed | Heading |
|---|---|---|---|---|---|
| 2026-05-05 17:06 | 37.01910 | -7.96764 | 33 ft | 0 kts | 10° |
| 2026-05-05 17:22 | 37.01901 | -7.96766 | 33 ft | 3 kts | 9° |
| 2026-05-05 17:22 | 37.01885 | -7.96769 | 32 ft | 0 kts | 9° |
| 2026-05-05 17:22 | 37.01870 | -7.96772 | 31 ft | 3 kts | 9° |
| 2026-05-05 17:23 | 37.01850 | -7.96776 | 31 ft | 3 kts | 9° |
| 2026-05-05 17:23 | 37.01830 | -7.96780 | 33 ft | 3 kts | 15° |
| 2026-05-05 17:23 | 37.01820 | -7.96798 | 29 ft | 3 kts | 132° |
| 2026-05-05 17:23 | 37.01829 | -7.96821 | 31 ft | 3 kts | 95° |
| 2026-05-05 17:24 | 37.01829 | -7.96824 | 31 ft | 0 kts | 95° |
| 2026-05-05 17:28 | 37.01829 | -7.96822 | 31 ft | 1 kts | 95° |
| 2026-05-05 17:29 | 37.01826 | -7.96800 | 30 ft | 4 kts | 99° |
| 2026-05-05 17:29 | 37.01820 | -7.96755 | 30 ft | 7 kts | 100° |
| 2026-05-05 17:29 | 37.01809 | -7.96683 | 33 ft | 10 kts | 100° |
| 2026-05-05 17:29 | 37.01796 | -7.96590 | 33 ft | 11 kts | 99° |
| 2026-05-05 17:30 | 37.01767 | -7.96516 | 33 ft | 10 kts | 154° |
| 2026-05-05 17:30 | 37.01702 | -7.96525 | 33 ft | 9 kts | 190° |
| 2026-05-05 17:30 | 37.01638 | -7.96530 | 33 ft | 9 kts | 161° |
| 2026-05-05 17:30 | 37.01611 | -7.96466 | 33 ft | 7 kts | 100° |
| 2026-05-05 17:31 | 37.01603 | -7.96405 | 33 ft | 7 kts | 100° |
| 2026-05-05 17:31 | 37.01594 | -7.96344 | 33 ft | 7 kts | 100° |
| 2026-05-05 17:31 | 37.01585 | -7.96285 | 32 ft | 7 kts | 100° |
| 2026-05-05 17:31 | 37.01577 | -7.96227 | 32 ft | 7 kts | 99° |
| 2026-05-05 17:32 | 37.01570 | -7.96171 | 31 ft | 7 kts | 99° |
| 2026-05-05 17:32 | 37.01562 | -7.96115 | 32 ft | 6 kts | 100° |
| 2026-05-05 17:32 | 37.01554 | -7.96061 | 32 ft | 6 kts | 99° |
| 2026-05-05 17:32 | 37.01547 | -7.96008 | 32 ft | 6 kts | 100° |
| 2026-05-05 17:33 | 37.01539 | -7.95955 | 32 ft | 6 kts | 100° |
| 2026-05-05 17:33 | 37.01532 | -7.95904 | 32 ft | 6 kts | 100° |
| 2026-05-05 17:33 | 37.01520 | -7.95856 | 32 ft | 6 kts | 121° |
| 2026-05-05 17:33 | 37.01485 | -7.95828 | 32 ft | 6 kts | 166° |
| 2026-05-05 17:34 | 37.01444 | -7.95833 | 31 ft | 5 kts | 190° |
| 2026-05-05 17:34 | 37.01439 | -7.95834 | 32 ft | 0 kts | 190° |
| 2026-05-05 17:35 | 37.01438 | -7.95834 | 32 ft | 1 kts | 190° |
| 2026-05-05 17:35 | 37.01418 | -7.95839 | 31 ft | 5 kts | 190° |
| 2026-05-05 17:35 | 37.01361 | -7.95854 | 29 ft | 10 kts | 204° |
| 2026-05-05 17:35 | 37.01348 | -7.95876 | 29 ft | 2 kts | 252° |
| 2026-05-05 17:36 | 37.01349 | -7.95891 | 29 ft | 2 kts | 278° |
| 2026-05-05 17:36 | 37.01373 | -7.96069 | 29 ft | 56 kts | 280° |
| 2026-05-05 17:36 | 37.01482 | -7.96845 | 32 ft | 124 kts | 280° |
| 2026-05-05 17:36 | 37.01685 | -7.98121 | 177 ft | 167 kts | 284° |
| 2026-05-05 17:37 | 37.01863 | -7.99608 | 872 ft | 175 kts | 283° |
| 2026-05-05 17:37 | 37.01988 | -8.00543 | 1732 ft | 155 kts | 284° |
| 2026-05-05 17:37 | 37.02253 | -8.02300 | 2774 ft | 166 kts | 285° |
| 2026-05-05 17:37 | 37.02492 | -8.03861 | 3135 ft | 195 kts | 285° |
| 2026-05-05 17:38 | 37.02759 | -8.05613 | 3370 ft | 220 kts | 284° |
| 2026-05-05 17:38 | 37.03113 | -8.07539 | 3768 ft | 234 kts | 296° |
| 2026-05-05 17:38 | 37.04167 | -8.09148 | 4190 ft | 247 kts | 328° |
| 2026-05-05 17:38 | 37.05804 | -8.09920 | 4878 ft | 257 kts | 353° |
| 2026-05-05 17:39 | 37.07595 | -8.10023 | 5830 ft | 257 kts | 359° |
| 2026-05-05 17:39 | 37.09388 | -8.10029 | 6684 ft | 263 kts | 359° |
| 2026-05-05 17:39 | 37.11243 | -8.10021 | 7469 ft | 267 kts | 358° |
| 2026-05-05 17:39 | 37.13128 | -8.10012 | 8219 ft | 275 kts | 358° |
| 2026-05-05 17:40 | 37.15041 | -8.10006 | 9010 ft | 278 kts | 358° |
| 2026-05-05 17:40 | 37.17014 | -8.10003 | 9802 ft | 284 kts | 356° |
| 2026-05-05 17:40 | 37.18995 | -8.10004 | 10441 ft | 294 kts | 356° |
| 2026-05-05 17:40 | 37.21147 | -8.10009 | 10630 ft | 320 kts | 356° |
| 2026-05-05 17:41 | 37.23431 | -8.10018 | 10991 ft | 336 kts | 356° |
| 2026-05-05 17:41 | 37.25806 | -8.10024 | 11678 ft | 341 kts | 356° |
| 2026-05-05 17:41 | 37.28156 | -8.10028 | 12488 ft | 343 kts | 356° |
| 2026-05-05 17:41 | 37.30572 | -8.10035 | 13201 ft | 348 kts | 356° |
| 2026-05-05 17:42 | 37.32995 | -8.10042 | 13918 ft | 352 kts | 356° |
| 2026-05-05 17:42 | 37.35471 | -8.10050 | 14623 ft | 355 kts | 356° |
| 2026-05-05 17:42 | 37.37941 | -8.10058 | 15255 ft | 359 kts | 356° |
| 2026-05-05 17:42 | 37.40466 | -8.10067 | 15905 ft | 363 kts | 356° |
| 2026-05-05 17:43 | 37.42992 | -8.10077 | 16537 ft | 367 kts | 356° |
| 2026-05-05 17:43 | 37.45567 | -8.10087 | 17171 ft | 371 kts | 356° |
| 2026-05-05 17:43 | 37.48154 | -8.10097 | 17802 ft | 376 kts | 356° |
| 2026-05-05 17:43 | 37.50793 | -8.10107 | 18408 ft | 380 kts | 356° |
| 2026-05-05 17:44 | 37.53458 | -8.10118 | 18951 ft | 383 kts | 356° |
| 2026-05-05 17:44 | 37.56101 | -8.10127 | 19602 ft | 383 kts | 356° |
| 2026-05-05 17:44 | 37.58774 | -8.10135 | 20387 ft | 379 kts | 355° |
| 2026-05-05 17:44 | 37.61389 | -8.10143 | 21145 ft | 376 kts | 355° |
| 2026-05-05 17:45 | 37.63989 | -8.10153 | 21814 ft | 376 kts | 355° |
| 2026-05-05 17:45 | 37.66624 | -8.10163 | 22488 ft | 376 kts | 355° |
| 2026-05-05 17:45 | 37.69237 | -8.10173 | 23194 ft | 374 kts | 355° |
| 2026-05-05 17:45 | 37.71839 | -8.10185 | 23553 ft | 383 kts | 355° |
| 2026-05-05 17:46 | 37.74573 | -8.10203 | 23647 ft | 397 kts | 355° |
| 2026-05-05 17:46 | 37.77365 | -8.10220 | 23774 ft | 409 kts | 355° |
| 2026-05-05 17:46 | 37.80246 | -8.10234 | 24074 ft | 414 kts | 355° |
| 2026-05-05 17:46 | 37.83125 | -8.10244 | 24521 ft | 416 kts | 355° |
| 2026-05-05 17:47 | 37.86031 | -8.10252 | 24979 ft | 417 kts | 354° |
| 2026-05-05 17:47 | 37.88953 | -8.10261 | 25417 ft | 418 kts | 354° |
| 2026-05-05 17:47 | 37.91843 | -8.10270 | 25922 ft | 418 kts | 354° |
| 2026-05-05 17:47 | 37.94752 | -8.10278 | 26493 ft | 415 kts | 354° |
| 2026-05-05 17:48 | 37.97642 | -8.10287 | 27041 ft | 414 kts | 353° |
| 2026-05-05 17:48 | 38.00535 | -8.10298 | 27548 ft | 413 kts | 353° |
| 2026-05-05 17:48 | 38.03385 | -8.10309 | 28045 ft | 413 kts | 353° |
| 2026-05-05 17:48 | 38.06262 | -8.10320 | 28590 ft | 411 kts | 353° |
| 2026-05-05 17:49 | 38.09134 | -8.10332 | 29107 ft | 410 kts | 352° |
| 2026-05-05 17:49 | 38.11995 | -8.10343 | 29614 ft | 410 kts | 352° |
| 2026-05-05 17:49 | 38.14820 | -8.10355 | 30038 ft | 411 kts | 352° |
| 2026-05-05 17:50 | 38.20616 | -8.10384 | 30041 ft | 414 kts | 352° |
| 2026-05-05 17:50 | 38.26310 | -8.10401 | 30031 ft | 407 kts | 352° |
| 2026-05-05 17:51 | 38.31985 | -8.10426 | 30035 ft | 410 kts | 352° |
| 2026-05-05 17:51 | 38.37715 | -8.10452 | 30029 ft | 412 kts | 352° |
| 2026-05-05 17:52 | 38.43417 | -8.10475 | 30028 ft | 412 kts | 352° |
| 2026-05-05 17:52 | 38.49163 | -8.10498 | 30020 ft | 412 kts | 352° |
| 2026-05-05 17:53 | 38.54865 | -8.10519 | 30013 ft | 409 kts | 352° |
| 2026-05-05 17:53 | 38.60552 | -8.10540 | 30032 ft | 407 kts | 352° |
| 2026-05-05 17:54 | 38.66186 | -8.10564 | 30023 ft | 406 kts | 352° |
| 2026-05-05 17:54 | 38.71849 | -8.10588 | 30028 ft | 405 kts | 352° |
| 2026-05-05 17:55 | 38.77479 | -8.10612 | 30020 ft | 405 kts | 352° |
| 2026-05-05 17:55 | 38.83107 | -8.10635 | 30024 ft | 406 kts | 353° |
| 2026-05-05 17:56 | 38.87819 | -8.10655 | 30027 ft | 407 kts | 353° |
| 2026-05-05 17:56 | 38.93487 | -8.10679 | 30038 ft | 408 kts | 353° |
| 2026-05-05 17:57 | 38.99161 | -8.10702 | 30029 ft | 409 kts | 353° |
| 2026-05-05 17:57 | 39.04890 | -8.10725 | 30035 ft | 409 kts | 353° |
| 2026-05-05 17:58 | 39.10564 | -8.10748 | 30029 ft | 408 kts | 353° |
| 2026-05-05 17:58 | 39.16243 | -8.10771 | 30028 ft | 408 kts | 353° |
| 2026-05-05 17:59 | 39.21914 | -8.10794 | 30026 ft | 407 kts | 353° |
| 2026-05-05 17:59 | 39.27580 | -8.10817 | 30033 ft | 406 kts | 353° |
| 2026-05-05 18:00 | 39.33235 | -8.10841 | 30030 ft | 406 kts | 353° |
| 2026-05-05 18:00 | 39.38861 | -8.10864 | 30033 ft | 406 kts | 353° |
| 2026-05-05 18:01 | 39.44488 | -8.10888 | 30033 ft | 405 kts | 353° |
| 2026-05-05 18:01 | 39.50160 | -8.10911 | 30032 ft | 405 kts | 353° |
| 2026-05-05 18:01 | 39.52920 | -8.10920 | 30014 ft | 394 kts | 353° |
| 2026-05-05 18:02 | 39.55624 | -8.10924 | 30013 ft | 383 kts | 353° |
| 2026-05-05 18:02 | 39.60916 | -8.10945 | 30042 ft | 379 kts | 353° |
| 2026-05-05 18:02 | 39.63555 | -8.10960 | 29784 ft | 382 kts | 353° |
| 2026-05-05 18:03 | 39.66208 | -8.10973 | 29546 ft | 375 kts | 353° |
| 2026-05-05 18:03 | 39.68798 | -8.10983 | 29181 ft | 372 kts | 353° |
| 2026-05-05 18:03 | 39.71383 | -8.10993 | 28811 ft | 368 kts | 353° |
| 2026-05-05 18:03 | 39.73902 | -8.11003 | 28486 ft | 364 kts | 353° |
| 2026-05-05 18:04 | 39.76443 | -8.11014 | 28101 ft | 361 kts | 353° |
| 2026-05-05 18:04 | 39.78926 | -8.11025 | 27768 ft | 358 kts | 353° |
| 2026-05-05 18:04 | 39.81426 | -8.11035 | 27401 ft | 355 kts | 353° |
| 2026-05-05 18:04 | 39.83873 | -8.11046 | 27058 ft | 352 kts | 353° |
| 2026-05-05 18:05 | 39.86297 | -8.11057 | 26716 ft | 349 kts | 353° |
| 2026-05-05 18:05 | 39.88738 | -8.11067 | 26377 ft | 347 kts | 353° |
| 2026-05-05 18:05 | 39.91157 | -8.11078 | 26039 ft | 345 kts | 353° |
| 2026-05-05 18:05 | 39.93537 | -8.11089 | 25701 ft | 342 kts | 353° |
| 2026-05-05 18:06 | 39.95901 | -8.11099 | 25372 ft | 340 kts | 353° |
| 2026-05-05 18:06 | 39.97471 | -8.11106 | 25146 ft | 339 kts | 353° |
| 2026-05-05 18:06 | 40.00587 | -8.11116 | 25049 ft | 327 kts | 353° |
| 2026-05-05 18:06 | 40.02804 | -8.11121 | 25039 ft | 316 kts | 353° |
| 2026-05-05 18:07 | 40.04970 | -8.11126 | 25016 ft | 304 kts | 353° |
| 2026-05-05 18:07 | 40.07022 | -8.11130 | 25021 ft | 291 kts | 353° |
| 2026-05-05 18:07 | 40.09024 | -8.11136 | 25024 ft | 280 kts | 352° |
| 2026-05-05 18:07 | 40.10958 | -8.11147 | 24903 ft | 281 kts | 352° |
| 2026-05-05 18:08 | 40.12963 | -8.11165 | 24196 ft | 293 kts | 353° |
| 2026-05-05 18:08 | 40.15061 | -8.11190 | 23063 ft | 314 kts | 353° |
| 2026-05-05 18:08 | 40.17304 | -8.11210 | 22317 ft | 319 kts | 354° |
| 2026-05-05 18:08 | 40.19495 | -8.11216 | 21959 ft | 318 kts | 354° |
| 2026-05-05 18:09 | 40.21723 | -8.11221 | 21637 ft | 316 kts | 354° |
| 2026-05-05 18:09 | 40.23890 | -8.11227 | 21316 ft | 314 kts | 354° |
| 2026-05-05 18:09 | 40.26072 | -8.11233 | 21007 ft | 311 kts | 354° |
| 2026-05-05 18:09 | 40.28244 | -8.11240 | 20696 ft | 309 kts | 354° |
| 2026-05-05 18:10 | 40.30373 | -8.11248 | 20387 ft | 307 kts | 354° |
| 2026-05-05 18:10 | 40.32517 | -8.11257 | 20095 ft | 304 kts | 354° |
| 2026-05-05 18:10 | 40.34618 | -8.11266 | 19784 ft | 303 kts | 354° |
| 2026-05-05 18:10 | 40.36700 | -8.11275 | 19497 ft | 301 kts | 354° |
| 2026-05-05 18:11 | 40.38793 | -8.11284 | 19191 ft | 299 kts | 354° |
| 2026-05-05 18:11 | 40.40890 | -8.11292 | 18891 ft | 297 kts | 354° |
| 2026-05-05 18:11 | 40.42935 | -8.11301 | 18600 ft | 295 kts | 354° |
| 2026-05-05 18:11 | 40.44989 | -8.11310 | 18293 ft | 293 kts | 354° |
| 2026-05-05 18:12 | 40.47008 | -8.11319 | 17974 ft | 291 kts | 354° |
| 2026-05-05 18:12 | 40.49040 | -8.11328 | 17678 ft | 289 kts | 354° |
| 2026-05-05 18:12 | 40.51033 | -8.11337 | 17368 ft | 287 kts | 354° |
| 2026-05-05 18:12 | 40.53020 | -8.11345 | 17100 ft | 284 kts | 354° |
| 2026-05-05 18:13 | 40.55009 | -8.11354 | 16797 ft | 282 kts | 354° |
| 2026-05-05 18:13 | 40.56968 | -8.11362 | 16505 ft | 280 kts | 355° |
| 2026-05-05 18:13 | 40.58900 | -8.11371 | 16224 ft | 278 kts | 355° |
| 2026-05-05 18:13 | 40.60817 | -8.11379 | 15935 ft | 276 kts | 355° |
| 2026-05-05 18:14 | 40.62745 | -8.11388 | 15648 ft | 274 kts | 355° |
| 2026-05-05 18:14 | 40.64638 | -8.11396 | 15370 ft | 271 kts | 355° |
| 2026-05-05 18:14 | 40.66505 | -8.11404 | 15110 ft | 269 kts | 355° |
| 2026-05-05 18:14 | 40.68388 | -8.11413 | 14829 ft | 268 kts | 356° |
| 2026-05-05 18:15 | 40.70244 | -8.11421 | 14550 ft | 267 kts | 356° |
| 2026-05-05 18:15 | 40.72117 | -8.11430 | 14295 ft | 268 kts | 356° |
| 2026-05-05 18:15 | 40.73981 | -8.11439 | 14016 ft | 273 kts | 356° |
| 2026-05-05 18:15 | 40.75894 | -8.11449 | 13735 ft | 280 kts | 357° |
| 2026-05-05 18:16 | 40.77877 | -8.11458 | 13403 ft | 285 kts | 357° |
| 2026-05-05 18:16 | 40.79854 | -8.11465 | 13067 ft | 283 kts | 357° |
| 2026-05-05 18:16 | 40.81805 | -8.11473 | 12757 ft | 281 kts | 357° |
| 2026-05-05 18:16 | 40.83764 | -8.11480 | 12460 ft | 279 kts | 357° |
| 2026-05-05 18:17 | 40.85676 | -8.11631 | 12132 ft | 276 kts | 343° |
| 2026-05-05 18:17 | 40.87380 | -8.12721 | 11839 ft | 271 kts | 321° |
| 2026-05-05 18:17 | 40.88641 | -8.14550 | 11412 ft | 267 kts | 302° |
| 2026-05-05 18:17 | 40.89343 | -8.16771 | 11137 ft | 261 kts | 289° |
| 2026-05-05 18:18 | 40.89823 | -8.19034 | 10844 ft | 254 kts | 287° |
| 2026-05-05 18:18 | 40.90270 | -8.21260 | 10569 ft | 250 kts | 287° |
| 2026-05-05 18:18 | 40.90718 | -8.23496 | 10312 ft | 250 kts | 287° |
| 2026-05-05 18:18 | 40.91160 | -8.25689 | 10170 ft | 247 kts | 287° |
| 2026-05-05 18:19 | 40.91612 | -8.27914 | 9987 ft | 254 kts | 287° |
| 2026-05-05 18:19 | 40.92083 | -8.30214 | 9698 ft | 260 kts | 288° |
| 2026-05-05 18:19 | 40.92549 | -8.32498 | 9372 ft | 254 kts | 288° |
| 2026-05-05 18:19 | 40.92996 | -8.34692 | 9131 ft | 245 kts | 288° |
| 2026-05-05 18:20 | 40.93437 | -8.36845 | 8863 ft | 239 kts | 288° |
| 2026-05-05 18:20 | 40.93875 | -8.38981 | 8614 ft | 239 kts | 288° |
| 2026-05-05 18:20 | 40.94314 | -8.41121 | 8364 ft | 243 kts | 288° |
| 2026-05-05 18:20 | 40.94759 | -8.43288 | 8124 ft | 252 kts | 288° |
| 2026-05-05 18:21 | 40.95226 | -8.45565 | 7832 ft | 253 kts | 288° |
| 2026-05-05 18:21 | 40.95679 | -8.47789 | 7538 ft | 246 kts | 288° |
| 2026-05-05 18:21 | 40.96115 | -8.49931 | 7274 ft | 240 kts | 288° |
| 2026-05-05 18:21 | 40.96545 | -8.52043 | 6985 ft | 235 kts | 288° |
| 2026-05-05 18:22 | 40.96975 | -8.54144 | 6651 ft | 241 kts | 288° |
| 2026-05-05 18:22 | 40.97418 | -8.56318 | 6385 ft | 240 kts | 288° |
| 2026-05-05 18:22 | 40.97827 | -8.58345 | 6280 ft | 221 kts | 288° |
| 2026-05-05 18:22 | 40.98395 | -8.60137 | 6091 ft | 200 kts | 312° |
| 2026-05-05 18:23 | 40.99421 | -8.61260 | 5791 ft | 190 kts | 333° |
| 2026-05-05 18:23 | 41.00659 | -8.61825 | 5402 ft | 188 kts | 347° |
| 2026-05-05 18:23 | 41.01936 | -8.62167 | 4946 ft | 190 kts | 348° |
| 2026-05-05 18:23 | 41.03211 | -8.62494 | 4764 ft | 177 kts | 348° |
| 2026-05-05 18:24 | 41.04387 | -8.62799 | 4526 ft | 168 kts | 348° |
| 2026-05-05 18:24 | 41.05516 | -8.63095 | 4184 ft | 167 kts | 348° |
| 2026-05-05 18:24 | 41.06662 | -8.63392 | 3824 ft | 166 kts | 349° |
| 2026-05-05 18:24 | 41.07785 | -8.63682 | 3448 ft | 167 kts | 348° |
| 2026-05-05 18:25 | 41.08939 | -8.63981 | 3100 ft | 167 kts | 348° |
| 2026-05-05 18:25 | 41.09694 | -8.64176 | 2960 ft | 163 kts | 348° |
| 2026-05-05 18:25 | 41.11128 | -8.64548 | 2676 ft | 155 kts | 348° |
| 2026-05-05 18:25 | 41.12179 | -8.64822 | 2487 ft | 153 kts | 348° |
| 2026-05-05 18:26 | 41.13207 | -8.65090 | 2313 ft | 146 kts | 348° |
| 2026-05-05 18:26 | 41.14202 | -8.65350 | 2106 ft | 149 kts | 347° |
| 2026-05-05 18:26 | 41.15194 | -8.65608 | 1889 ft | 142 kts | 347° |
| 2026-05-05 18:26 | 41.16150 | -8.65857 | 1726 ft | 138 kts | 347° |
| 2026-05-05 18:27 | 41.17105 | -8.66107 | 1530 ft | 143 kts | 347° |
| 2026-05-05 18:27 | 41.18083 | -8.66366 | 1342 ft | 142 kts | 345° |
| 2026-05-05 18:27 | 41.19059 | -8.66666 | 1153 ft | 144 kts | 347° |
| 2026-05-05 18:27 | 41.20064 | -8.66925 | 962 ft | 150 kts | 347° |
| 2026-05-05 18:28 | 41.22036 | -8.67417 | 586 ft | 138 kts | 347° |
| 2026-05-05 18:28 | 41.23008 | -8.67638 | 322 ft | 145 kts | 347° |
| 2026-05-05 18:28 | 41.24003 | -8.67909 | 237 ft | 141 kts | 346° |
| 2026-05-05 18:29 | 41.24793 | -8.68118 | 236 ft | 56 kts | 349° |
| 2026-05-05 18:29 | 41.25112 | -8.68162 | 233 ft | 40 kts | 9° |
| 2026-05-05 18:29 | 41.25275 | -8.68088 | 237 ft | 14 kts | 46° |
| 2026-05-05 18:29 | 41.25277 | -8.68024 | 234 ft | 5 kts | 132° |
| 2026-05-05 18:30 | 41.25242 | -8.68004 | 234 ft | 6 kts | 171° |
| 2026-05-05 18:30 | 41.25206 | -8.67996 | 234 ft | 0 kts | 171° |
| 2026-05-05 18:33 | 41.25201 | -8.67995 | 234 ft | 2 kts | 171° |
| 2026-05-05 18:34 | 41.25167 | -8.67987 | 236 ft | 7 kts | 169° |
| 2026-05-05 18:34 | 41.25099 | -8.67969 | 234 ft | 12 kts | 168° |
| 2026-05-05 18:34 | 41.25018 | -8.67947 | 235 ft | 12 kts | 169° |
| 2026-05-05 18:34 | 41.24938 | -8.67926 | 234 ft | 12 kts | 168° |
| 2026-05-05 18:35 | 41.24861 | -8.67897 | 234 ft | 11 kts | 158° |
| 2026-05-05 18:35 | 41.24794 | -8.67845 | 235 ft | 11 kts | 153° |
| 2026-05-05 18:35 | 41.24746 | -8.67821 | 234 ft | 11 kts | 164° |
| 2026-05-05 18:35 | 41.24674 | -8.67803 | 234 ft | 10 kts | 169° |
| 2026-05-05 18:36 | 41.24603 | -8.67784 | 234 ft | 10 kts | 169° |
| 2026-05-05 18:36 | 41.24535 | -8.67766 | 234 ft | 10 kts | 169° |
| 2026-05-05 18:36 | 41.24468 | -8.67749 | 234 ft | 10 kts | 169° |
| 2026-05-05 18:36 | 41.24404 | -8.67732 | 236 ft | 9 kts | 168° |
| 2026-05-05 18:37 | 41.24340 | -8.67715 | 234 ft | 9 kts | 168° |
| 2026-05-05 18:37 | 41.24286 | -8.67678 | 236 ft | 9 kts | 129° |
| 2026-05-05 18:37 | 41.24251 | -8.67613 | 234 ft | 9 kts | 126° |
| 2026-05-05 18:37 | 41.24216 | -8.67549 | 234 ft | 8 kts | 127° |
| 2026-05-05 18:38 | 41.24174 | -8.67496 | 237 ft | 8 kts | 142° |
| 2026-05-05 18:38 | 41.24128 | -8.67455 | 237 ft | 8 kts | 154° |
| 2026-05-05 18:38 | 41.24077 | -8.67431 | 234 ft | 8 kts | 166° |
| 2026-05-05 18:38 | 41.24025 | -8.67417 | 236 ft | 7 kts | 168° |
| 2026-05-05 18:39 | 41.23977 | -8.67429 | 235 ft | 7 kts | 212° |
| 2026-05-05 18:39 | 41.23935 | -8.67467 | 234 ft | 7 kts | 213° |
| 2026-05-05 18:39 | 41.23892 | -8.67491 | 234 ft | 7 kts | 183° |
| 2026-05-05 18:39 | 41.23844 | -8.67479 | 234 ft | 7 kts | 169° |
| 2026-05-05 18:40 | 41.23798 | -8.67467 | 234 ft | 7 kts | 169° |
| 2026-05-05 18:40 | 41.23754 | -8.67447 | 237 ft | 7 kts | 144° |
| 2026-05-05 18:40 | 41.23731 | -8.67411 | 236 ft | 1 kts | 126° |
| 2026-05-05 18:40 | 41.23727 | -8.67405 | 236 ft | 1 kts | 126° |
| 2026-05-05 18:41 | 41.23724 | -8.67399 | 236 ft | 1 kts | 123° |
| 2026-05-05 18:41 | 41.23724 | -8.67377 | 236 ft | 2 kts | 78° |
| 2026-05-05 18:41 | 41.23737 | -8.67352 | 236 ft | 3 kts | 45° |
| 2026-05-05 18:41 | 41.23753 | -8.67329 | 234 ft | 3 kts | 50° |
| 2026-05-05 18:42 | 41.23768 | -8.67305 | 236 ft | 3 kts | 48° |
| 2026-05-05 18:42 | 41.23778 | -8.67291 | 237 ft | 0 kts | 49° |